Time;durP1;ratioP1;P1;durP2;ratioP2;P2;SDS_P1;SDS_P2;PMS_P1;PMS_P2;Temp;Humidity;BMP_temperature;BMP_pressure;BME280_temperature;BME280_humidity;BME280_pressure;Samples;Min_cycle;Max_cycle;Signal;HPM_P1;HPM_P2
2022/11/04 00:01:42;;;;;;;0.83;0.83;;;;;;;1.01;94.18;101908.00;4917373;29;20269;-77
2022/11/04 00:04:10;;;;;;;1.13;1.00;;;;;;;1.09;93.41;101918.97;4914576;29;20336;-76
2022/11/04 00:06:36;;;;;;;1.30;1.20;;;;;;;1.14;92.73;101912.56;4902773;29;20028;-77
2022/11/04 00:09:04;;;;;;;1.10;1.00;;;;;;;1.12;92.60;101917.03;4900392;29;20253;-75
2022/11/04 00:14:18;;;;;;;1.23;1.00;;;;;;;0.96;92.96;101899.50;4903127;29;20301;-75
2022/11/04 00:28:41;;;;;;;1.37;1.27;;;;;;;1.13;93.18;101917.88;4913943;29;20728;-77
2022/11/04 00:30:25;;;;;;;1.50;1.03;;;;;;;0.93;91.87;101906.59;4907241;29;20581;-76
2022/11/04 00:35:34;;;;;;;1.00;1.00;;;;;;;0.87;92.69;101914.75;4897054;29;20032;-77
2022/11/04 00:38:00;;;;;;;1.80;1.00;;;;;;;0.92;92.04;101909.28;4897564;29;20662;-76
2022/11/04 00:40:25;;;;;;;0.93;0.90;;;;;;;0.88;92.01;101908.59;4897838;29;20036;-76
2022/11/04 00:42:51;;;;;;;1.07;0.93;;;;;;;0.86;91.91;101912.16;4881447;29;20373;-77
2022/11/04 00:45:16;;;;;;;0.90;0.90;;;;;;;0.90;92.37;101908.50;4896841;29;20028;-77
2022/11/04 00:47:42;;;;;;;1.20;1.10;;;;;;;0.91;92.62;101912.84;4897823;29;20036;-77
2022/11/04 00:50:08;;;;;;;1.10;1.00;;;;;;;0.93;91.62;101913.59;4897497;29;20024;-77
2022/11/04 00:52:33;;;;;;;1.30;1.20;;;;;;;0.93;91.75;101906.59;4898171;29;20128;-75
2022/11/04 00:54:59;;;;;;;1.10;1.10;;;;;;;0.94;91.97;101915.31;4897432;29;20048;-77
2022/11/04 00:57:25;;;;;;;0.97;0.97;;;;;;;1.06;92.23;101919.09;4898241;29;20025;-75
2022/11/04 00:59:50;;;;;;;1.10;1.00;;;;;;;1.00;91.11;101924.66;4898482;29;20331;-77
2022/11/04 01:02:16;;;;;;;1.53;1.20;;;;;;;0.93;91.20;101910.97;4898046;29;20040;-77
2022/11/04 01:04:41;;;;;;;1.60;1.33;;;;;;;0.99;91.50;101920.34;4880793;29;20024;-77
2022/11/04 01:07:07;;;;;;;1.17;1.10;;;;;;;0.97;91.15;101912.53;4897974;29;20479;-77
2022/11/04 01:09:32;;;;;;;1.20;1.00;;;;;;;0.85;91.05;101882.47;4897883;29;20040;-76
2022/11/04 01:11:58;;;;;;;1.20;1.10;;;;;;;0.89;91.29;101868.31;4880355;29;20120;-75
2022/11/04 01:14:24;;;;;;;1.77;1.03;;;;;;;1.27;90.96;101915.47;4897376;29;20086;-77
2022/11/04 01:16:49;;;;;;;1.67;0.90;;;;;;;1.21;90.75;101921.00;4880664;29;20496;-75
2022/11/04 01:19:16;;;;;;;1.20;1.10;;;;;;;1.01;90.89;101902.75;4880851;29;20050;-78
2022/11/04 01:21:41;;;;;;;1.40;1.30;;;;;;;1.07;91.18;101920.81;4865180;29;20029;-77
2022/11/04 01:24:07;;;;;;;1.20;1.10;;;;;;;1.09;91.87;101911.09;4897515;29;20261;-79
2022/11/04 01:26:33;;;;;;;1.27;1.00;;;;;;;1.21;91.04;101911.34;4897567;29;20052;-77
2022/11/04 01:28:59;;;;;;;4.67;1.00;;;;;;;1.27;90.46;101925.94;4896459;29;20037;-76
2022/11/04 01:31:30;;;;;;;0.90;0.90;;;;;;;1.22;90.15;101917.47;4909454;29;20118;-76
2022/11/04 01:33:57;;;;;;;0.80;0.80;;;;;;;1.23;89.93;101927.88;4920764;29;20297;-75
2022/11/04 01:36:24;;;;;;;1.17;0.90;;;;;;;1.30;89.98;101912.69;4914197;29;20741;-76
2022/11/04 01:38:49;;;;;;;0.90;0.90;;;;;;;1.38;90.66;101915.75;4899749;29;20357;-76
2022/11/04 01:41:18;;;;;;;1.57;1.10;;;;;;;1.38;89.62;101915.75;4898738;29;20682;-77
2022/11/04 01:44:00;;;;;;;;;;;;;;;1.43;89.30;101920.78;4881189;29;20040;-77
2022/11/04 01:46:41;;;;;;;1.10;1.00;;;;;;;1.31;90.00;101911.75;4863513;29;20253;-77
2022/11/04 01:49:25;;;;;;;1.10;1.00;;;;;;;1.33;90.26;101925.66;4900426;29;20257;-76
2022/11/04 01:51:58;;;;;;;1.00;0.90;;;;;;;1.30;90.84;101915.31;4902056;29;20276;-77
2022/11/04 01:54:24;;;;;;;3.23;1.00;;;;;;;1.29;91.05;101918.84;4900844;29;20323;-77
2022/11/04 01:56:50;;;;;;;0.90;0.90;;;;;;;1.24;91.13;101905.13;4900697;29;20269;-76
2022/11/04 01:59:37;;;;;;;1.20;1.10;;;;;;;1.46;91.00;101923.28;4884104;29;20025;-77
2022/11/04 02:02:03;;;;;;;1.20;1.10;;;;;;;1.40;90.63;101905.19;4901506;29;20265;-77
2022/11/04 02:04:29;;;;;;;1.27;1.17;;;;;;;1.41;90.66;101899.88;4901697;29;20304;-77
2022/11/04 02:07:07;;;;;;;1.50;1.40;;;;;;;1.55;90.45;101904.44;4899912;29;20269;-76
2022/11/04 02:09:34;;;;;;;1.00;0.98;;;;;;;1.54;90.12;101918.50;4883840;29;20032;-79
2022/11/04 02:14:47;;;;;;;1.13;1.03;;;;;;;1.23;91.77;101891.13;4900799;29;20383;-76
2022/11/04 02:17:19;;;;;;;1.00;1.00;;;;;;;1.32;91.76;101908.19;4884326;29;20273;-76
2022/11/04 02:19:47;;;;;;;1.40;1.30;;;;;;;1.22;91.56;101912.22;4900806;29;20381;-75
2022/11/04 02:22:47;;;;;;;1.48;1.30;;;;;;;1.23;92.70;101920.00;4900656;29;20261;-77
2022/11/04 02:26:00;;;;;;;1.30;1.17;;;;;;;1.28;92.40;101901.41;4901564;29;20036;-77
2022/11/04 02:28:52;;;;;;;1.73;1.00;;;;;;;1.31;92.56;101909.13;4882531;29;20427;-77
2022/11/04 02:31:29;;;;;;;3.50;1.70;;;;;;;1.30;92.30;101907.44;4899791;29;20257;-77
2022/11/04 02:34:17;;;;;;;1.80;1.70;;;;;;;1.29;92.81;101908.34;4900280;29;20308;-76
2022/11/04 02:36:50;;;;;;;3.07;1.87;;;;;;;1.10;92.07;101918.03;4900831;29;20873;-76
2022/11/04 02:39:33;;;;;;;1.60;1.50;;;;;;;1.09;93.29;101911.09;4900904;29;20324;-76
2022/11/04 02:42:21;;;;;;;1.60;1.50;;;;;;;1.13;93.28;101910.00;4902603;29;20308;-77
2022/11/04 02:44:58;;;;;;;1.35;1.25;;;;;;;1.11;93.75;101898.75;4909491;29;20265;-77
2022/11/04 02:47:29;;;;;;;2.80;1.50;;;;;;;1.12;94.40;101911.78;4914357;29;20452;-75
2022/11/04 02:50:07;;;;;;;7.53;1.67;;;;;;;0.96;94.74;101896.88;4913536;29;20292;-76
2022/11/04 02:52:48;;;;;;;24.80;2.35;;;;;;;1.06;95.59;101919.09;4895281;29;20268;-77
2022/11/04 02:55:37;;;;;;;1.13;1.03;;;;;;;1.17;95.47;101922.09;4902830;29;20043;-76
2022/11/04 02:58:05;;;;;;;;;;;;;;;1.18;94.89;101919.38;4900117;29;20316;-76
2022/11/04 03:00:33;;;;;;;1.60;1.50;;;;;;;1.17;94.93;101922.94;4900023;29;20332;-75
2022/11/04 03:03:03;;;;;;;1.63;1.33;;;;;;;1.22;95.24;101925.31;4882890;29;20033;-76
2022/11/04 03:05:38;;;;;;;1.47;1.37;;;;;;;1.24;95.11;101926.09;4899691;29;20609;-75
2022/11/04 03:08:18;;;;;;;1.30;1.20;;;;;;;1.30;95.18;101931.06;4899465;29;20708;-75
2022/11/04 03:10:51;;;;;;;2.47;1.40;;;;;;;1.34;94.17;101921.25;4899250;29;20272;-75
2022/11/04 03:14:06;;;;;;;1.30;1.20;;;;;;;1.36;94.14;101924.66;4883269;29;20424;-75
2022/11/04 03:16:38;;;;;;;1.87;1.37;;;;;;;1.24;94.40;101920.84;4879313;29;20285;-76
2022/11/04 03:19:04;;;;;;;1.50;1.40;;;;;;;1.21;93.23;101921.00;4899143;29;20591;-75
2022/11/04 03:21:33;;;;;;;1.83;1.33;;;;;;;1.06;93.92;101911.22;4900327;29;20269;-76
2022/11/04 03:24:00;;;;;;;2.33;1.70;;;;;;;1.11;93.55;101919.72;4883554;29;20037;-76
2022/11/04 03:26:39;;;;;;;2.40;2.03;;;;;;;1.10;94.11;101918.88;4883291;29;20268;-77
2022/11/04 03:29:32;;;;;;;1.50;1.40;;;;;;;1.07;93.20;101912.94;4899685;29;20285;-76
2022/11/04 03:32:06;;;;;;;1.67;1.30;;;;;;;1.13;93.15;101917.88;4899691;29;20265;-77
2022/11/04 03:34:32;;;;;;;1.63;1.53;;;;;;;1.13;92.37;101918.72;4899716;29;20720;-77
2022/11/04 03:36:58;;;;;;;1.70;1.47;;;;;;;1.01;92.60;101905.38;4899964;29;20330;-77
2022/11/04 03:39:24;;;;;;;2.60;1.10;;;;;;;1.03;91.74;101927.97;4897311;29;20381;-76
2022/11/04 03:41:55;;;;;;;1.67;1.27;;;;;;;1.03;90.79;101911.38;4899451;29;20700;-75
2022/11/04 03:44:21;;;;;;;1.30;1.20;;;;;;;1.16;90.65;101912.50;4899229;29;20889;-77
2022/11/04 03:46:47;;;;;;;1.60;1.40;;;;;;;1.15;90.52;101918.66;4898873;29;20352;-77
2022/11/04 03:49:14;;;;;;;1.20;1.10;;;;;;;1.16;90.75;101923.84;4882172;29;20373;-76
2022/11/04 03:51:39;;;;;;;1.40;1.20;;;;;;;1.04;90.14;101895.56;4898351;29;20272;-76
2022/11/04 03:54:06;;;;;;;1.23;1.13;;;;;;;1.18;89.13;101918.53;4882129;29;20301;-76
2022/11/04 03:56:35;;;;;;;1.77;1.60;;;;;;;1.16;88.47;101929.09;4899246;29;20111;-77
2022/11/04 03:59:06;;;;;;;1.70;1.40;;;;;;;1.06;88.83;101925.19;4899236;29;20332;-76
2022/11/04 04:01:47;;;;;;;1.47;1.20;;;;;;;1.08;88.95;101927.75;4882583;29;20032;-76
2022/11/04 04:04:25;;;;;;;1.10;1.10;;;;;;;1.00;88.01;101927.28;4899224;29;20409;-77
2022/11/04 04:06:56;;;;;;;1.35;1.17;;;;;;;0.89;88.51;101925.16;4899495;29;20764;-78
2022/11/04 04:09:43;;;;;;;1.30;1.20;;;;;;;1.02;88.23;101931.53;4899221;29;20040;-76
2022/11/04 04:12:26;;;;;;;1.23;1.10;;;;;;;0.81;88.66;101885.31;4899424;29;20292;-77
2022/11/04 04:14:57;;;;;;;3.73;1.10;;;;;;;1.00;87.08;101925.50;4899149;29;20303;-75
2022/11/04 04:17:28;;;;;;;1.20;1.10;;;;;;;0.91;87.59;101929.41;4899470;29;20625;-77
2022/11/04 04:19:58;;;;;;;1.20;1.10;;;;;;;0.87;88.66;101921.78;4899201;29;20309;-76
2022/11/04 04:22:30;;;;;;;1.70;1.33;;;;;;;0.87;89.54;101922.63;4898712;29;20257;-77
2022/11/04 04:27:45;;;;;;;1.10;1.00;;;;;;;0.95;89.98;101934.50;4898806;29;20284;-76
2022/11/04 04:30:13;;;;;;;1.20;1.10;;;;;;;0.59;91.16;101891.59;4899132;29;20355;-75
2022/11/04 04:32:48;;;;;;;2.53;1.73;;;;;;;0.89;91.87;101933.03;4900248;29;20269;-76
2022/11/04 04:46:25;;;;;;;1.95;1.30;;;;;;;1.10;90.98;101939.03;4898365;29;20753;-77
2022/11/04 04:48:50;;;;;;;1.27;1.17;;;;;;;1.11;90.36;101924.97;4898035;29;20036;-75
2022/11/04 04:51:16;;;;;;;1.23;1.13;;;;;;;1.20;90.32;101937.69;4897635;29;20027;-77
2022/11/04 04:53:41;;;;;;;2.87;1.43;;;;;;;1.31;90.28;101948.50;4898830;29;20490;-76
2022/11/04 04:56:07;;;;;;;1.77;1.60;;;;;;;1.24;89.86;101942.69;4899151;29;20523;-75
2022/11/04 04:58:32;;;;;;;1.80;1.60;;;;;;;1.15;89.93;101937.03;4881790;29;20123;-77
2022/11/04 05:00:58;;;;;;;1.53;1.30;;;;;;;1.17;88.84;101951.78;4898239;29;20039;-76
2022/11/04 05:03:26;;;;;;;2.40;1.20;;;;;;;1.16;88.66;101954.50;4897805;29;20032;-77
2022/11/04 05:05:52;;;;;;;1.92;1.67;;;;;;;1.16;89.34;101949.25;4884456;29;20080;-77
2022/11/04 05:08:20;;;;;;;2.05;1.63;;;;;;;1.18;88.76;101963.13;4914498;29;20061;-78
2022/11/04 05:10:47;;;;;;;1.73;1.53;;;;;;;1.06;88.31;101959.31;4914875;29;20032;-77
2022/11/04 05:13:25;;;;;;;1.90;1.70;;;;;;;1.04;89.39;101960.31;4911332;29;20032;-77
2022/11/04 05:15:51;;;;;;;1.70;1.58;;;;;;;0.96;89.90;101957.19;4885250;29;20269;-76
2022/11/04 05:18:17;;;;;;;2.20;2.00;;;;;;;0.97;89.69;101962.38;4898798;29;20454;-77
2022/11/04 05:20:42;;;;;;;1.50;1.40;;;;;;;0.89;89.44;101970.59;4898664;29;20257;-77
2022/11/04 05:23:10;;;;;;;2.37;1.83;;;;;;;0.90;89.93;101974.06;4901997;29;20031;-76
2022/11/04 05:25:38;;;;;;;2.42;2.15;;;;;;;1.01;91.16;101968.31;4885334;29;20032;-75
2022/11/04 05:28:04;;;;;;;1.67;1.57;;;;;;;1.02;90.23;101959.53;4901956;29;20123;-77
2022/11/04 05:30:30;;;;;;;1.40;1.23;;;;;;;1.03;90.04;101964.69;4901809;29;20257;-76
2022/11/04 05:32:56;;;;;;;1.70;1.20;;;;;;;0.97;89.73;101964.16;4893520;29;20265;-77
2022/11/04 05:35:46;;;;;;;2.77;1.40;;;;;;;0.88;90.47;101955.78;4918682;29;20056;-76
2022/11/04 05:38:12;;;;;;;1.53;1.33;;;;;;;0.84;90.78;101969.09;4920417;29;20285;-76
2022/11/04 05:40:37;;;;;;;4.10;1.50;;;;;;;0.86;90.67;101968.09;4922176;29;20049;-76
2022/11/04 05:43:04;;;;;;;1.87;1.40;;;;;;;0.77;92.20;101968.53;4872762;29;20065;-76
2022/11/04 05:45:30;;;;;;;1.40;1.30;;;;;;;0.83;92.74;101968.25;4888408;29;20447;-77
2022/11/04 05:47:57;;;;;;;6.83;4.43;;;;;;;0.80;92.24;101978.88;4901424;29;20411;-77
2022/11/04 05:50:22;;;;;;;6.83;2.33;;;;;;;0.72;92.21;101967.91;4900863;29;20108;-76
2022/11/04 05:52:48;;;;;;;4.37;2.23;;;;;;;0.69;92.26;101969.81;4900444;29;20715;-76
2022/11/04 05:55:13;;;;;;;2.47;2.13;;;;;;;0.65;91.91;101969.09;4901173;29;20539;-77
2022/11/04 05:57:39;;;;;;;2.13;1.80;;;;;;;0.74;92.09;101973.91;4901430;29;20084;-77
2022/11/04 06:00:05;;;;;;;8.03;3.03;;;;;;;0.78;91.42;101978.09;4901263;29;20484;-78
2022/11/04 06:02:31;;;;;;;2.13;1.90;;;;;;;0.83;91.63;101978.72;4868321;29;20052;-78
2022/11/04 06:04:57;;;;;;;2.60;2.33;;;;;;;0.83;91.28;101983.97;4899471;29;20725;-77
2022/11/04 06:07:22;;;;;;;6.57;1.93;;;;;;;0.87;91.08;101974.22;4900838;29;20044;-77
2022/11/04 06:09:48;;;;;;;4.77;3.10;;;;;;;0.83;90.85;101988.38;4901107;29;20033;-78
2022/11/04 06:12:15;;;;;;;2.63;2.00;;;;;;;0.68;91.51;101979.44;4901752;29;20048;-76
2022/11/04 06:14:44;;;;;;;7.00;3.33;;;;;;;0.62;91.11;101977.09;4901688;29;20071;-77
2022/11/04 06:17:18;;;;;;;8.18;5.05;;;;;;;0.60;91.73;101981.56;4883969;29;20261;-77
2022/11/04 06:19:44;;;;;;;4.80;3.37;;;;;;;0.56;91.23;101987.84;4883897;29;20032;-76
2022/11/04 06:22:12;;;;;;;4.17;2.43;;;;;;;0.56;91.33;101982.59;4883950;29;20284;-77
2022/11/04 06:24:37;;;;;;;4.50;2.10;;;;;;;0.66;91.56;101986.53;4900358;29;20268;-75
2022/11/04 06:27:03;;;;;;;4.23;3.23;;;;;;;0.76;91.42;101984.34;4900191;29;20308;-77
2022/11/04 06:29:29;;;;;;;4.47;1.90;;;;;;;0.80;89.91;101988.50;4900867;29;20326;-79
2022/11/04 06:31:54;;;;;;;2.53;2.27;;;;;;;0.71;90.27;101984.53;4900113;29;20028;-75
2022/11/04 06:34:20;;;;;;;2.50;2.20;;;;;;;0.79;89.59;101998.16;4899037;29;20033;-77
2022/11/04 06:36:47;;;;;;;1.33;1.23;;;;;;;0.77;87.86;101973.78;4883096;29;20096;-77
2022/11/04 06:39:13;;;;;;;1.80;1.70;;;;;;;1.07;87.79;102002.97;4900393;29;20037;-77
2022/11/04 06:41:39;;;;;;;2.10;1.90;;;;;;;1.04;86.65;101992.63;4900695;29;20268;-79
2022/11/04 06:44:04;;;;;;;2.17;1.70;;;;;;;0.97;87.10;102001.72;4900683;29;20032;-77
2022/11/04 06:46:38;;;;;;;2.40;2.17;;;;;;;0.86;87.58;102004.81;4900805;29;20077;-77
2022/11/04 06:49:05;;;;;;;3.77;1.70;;;;;;;0.79;87.90;102002.53;4899508;29;20123;-77
2022/11/04 06:51:32;;;;;;;1.93;1.57;;;;;;;0.68;87.21;101995.19;4899623;29;20257;-77
2022/11/04 06:53:57;;;;;;;2.23;1.67;;;;;;;0.71;87.66;101996.81;4900277;29;20299;-79
2022/11/04 06:56:23;;;;;;;1.73;1.63;;;;;;;0.82;87.69;101998.00;4901020;29;20261;-77
2022/11/04 06:58:49;;;;;;;5.57;1.93;;;;;;;0.80;87.54;101994.59;4883367;29;20024;-75
2022/11/04 07:01:17;;;;;;;1.87;1.20;;;;;;;0.74;86.18;101992.28;4900382;29;20599;-73
2022/11/04 07:03:43;;;;;;;3.57;1.47;;;;;;;0.93;87.10;101994.91;4900014;29;20265;-75
2022/11/04 07:06:10;;;;;;;3.77;1.40;;;;;;;0.83;86.99;101983.97;4899496;29;20269;-77
2022/11/04 07:08:36;;;;;;;1.87;1.60;;;;;;;0.80;87.64;101986.75;4883077;29;20163;-76
2022/11/04 07:11:07;;;;;;;1.97;1.77;;;;;;;0.85;87.59;101997.88;4898818;29;20333;-78
2022/11/04 07:13:33;;;;;;;3.37;1.77;;;;;;;0.83;87.59;101999.72;4898890;29;20417;-77
2022/11/04 07:15:58;;;;;;;1.63;1.40;;;;;;;0.82;86.98;101992.75;4866653;29;20262;-76
2022/11/04 07:18:28;;;;;;;3.40;1.53;;;;;;;0.82;86.82;102002.41;4899114;29;20052;-77
2022/11/04 07:20:53;;;;;;;2.13;1.53;;;;;;;0.97;88.16;102004.34;4882637;29;20359;-76
2022/11/04 07:23:19;;;;;;;2.00;1.80;;;;;;;0.97;86.30;101987.75;4883677;29;20032;-75
2022/11/04 07:25:44;;;;;;;1.70;1.60;;;;;;;1.07;86.02;102010.84;4899506;29;20031;-75
2022/11/04 07:28:10;;;;;;;8.43;1.90;;;;;;;1.00;86.24;102008.59;4898761;29;20020;-76
2022/11/04 07:30:36;;;;;;;2.63;1.83;;;;;;;0.84;86.22;101987.44;4898522;29;20027;-73
2022/11/04 07:33:04;;;;;;;2.70;1.70;;;;;;;1.08;85.70;102014.31;4899074;29;20028;-76
2022/11/04 07:35:30;;;;;;;3.47;1.73;;;;;;;1.06;86.31;102013.56;4882626;29;20033;-74
2022/11/04 07:37:56;;;;;;;3.63;1.93;;;;;;;1.01;85.64;102015.53;4898891;29;20044;-80
2022/11/04 07:40:22;;;;;;;2.13;1.90;;;;;;;0.95;86.85;102021.06;4899445;29;20764;-77
2022/11/04 07:42:47;;;;;;;2.27;1.57;;;;;;;0.92;86.07;102020.28;4882369;29;20483;-73
2022/11/04 07:45:13;;;;;;;1.80;1.60;;;;;;;0.87;86.14;102010.94;4897854;29;20469;-74
2022/11/04 07:47:38;;;;;;;2.47;1.73;;;;;;;0.95;86.48;102014.06;4898536;29;20029;-78
2022/11/04 07:50:04;;;;;;;4.33;1.57;;;;;;;1.04;86.31;102018.03;4895728;29;20116;-78
2022/11/04 07:52:30;;;;;;;1.83;1.30;;;;;;;0.96;84.97;102014.91;4897903;29;20029;-74
2022/11/04 07:54:55;;;;;;;2.90;1.50;;;;;;;0.77;85.53;101997.38;4894871;29;20056;-74
2022/11/04 07:57:21;;;;;;;3.37;1.80;;;;;;;0.88;85.63;102017.88;4896950;29;20480;-75
2022/11/04 07:59:47;;;;;;;1.73;1.57;;;;;;;0.98;85.55;102013.91;4897361;29;20032;-74
2022/11/04 08:02:12;;;;;;;3.90;1.93;;;;;;;1.22;85.07;102027.66;4898372;29;20040;-76
2022/11/04 08:04:38;;;;;;;3.03;1.93;;;;;;;1.26;84.08;102013.47;4897482;29;20073;-75
2022/11/04 08:07:07;;;;;;;4.37;1.77;;;;;;;1.17;83.63;102030.50;4891745;29;20040;-74
2022/11/04 08:09:32;;;;;;;;;;;;;;;1.11;84.62;102035.16;4896382;29;20422;-77
2022/11/04 08:12:00;;;;;;;2.10;1.87;;;;;;;0.97;84.83;102032.34;4896043;29;19919;-76
2022/11/04 08:14:26;;;;;;;4.35;2.00;;;;;;;1.01;86.30;102020.78;4897348;29;20421;-75
2022/11/04 08:16:52;;;;;;;2.40;1.73;;;;;;;1.20;85.29;102029.53;4879613;29;20038;-75
2022/11/04 08:19:17;;;;;;;1.77;1.67;;;;;;;1.23;84.70;102029.38;4897759;29;20036;-76
2022/11/04 08:21:42;;;;;;;3.43;2.10;;;;;;;1.13;84.62;102028.09;4896715;29;20043;-76
2022/11/04 08:24:08;;;;;;;3.67;2.47;;;;;;;1.10;84.82;102033.47;4897534;29;20035;-82
2022/11/04 08:26:34;;;;;;;3.07;2.00;;;;;;;1.04;84.85;102028.50;4893734;29;20445;-75
2022/11/04 08:29:01;;;;;;;8.60;2.67;;;;;;;1.11;84.70;102036.03;4896166;29;20553;-77
2022/11/04 08:31:29;;;;;;;4.63;2.50;;;;;;;1.17;84.58;102030.50;4881360;29;20040;-76
2022/11/04 08:33:55;;;;;;;4.80;2.15;;;;;;;1.13;83.97;102031.56;4896949;29;20296;-78
2022/11/04 08:36:27;;;;;;;2.77;2.43;;;;;;;1.09;84.15;102029.16;4897476;29;20469;-76
2022/11/04 08:38:53;;;;;;;1.67;1.50;;;;;;;0.99;84.70;102031.34;4898432;29;20304;-77
2022/11/04 08:44:59;;;;;;;5.47;2.23;;;;;;;1.14;84.52;102040.28;4896042;29;20433;-77
2022/11/04 08:47:25;;;;;;;3.97;2.17;;;;;;;1.17;84.10;102022.66;4897469;29;20734;-77
2022/11/04 08:49:50;;;;;;;2.43;1.70;;;;;;;1.22;84.03;102033.78;4895294;29;20037;-77
2022/11/04 08:52:16;;;;;;;4.70;2.37;;;;;;;1.22;84.17;102022.44;4897437;29;20033;-78
2022/11/04 08:54:43;;;;;;;3.43;2.20;;;;;;;1.13;84.44;102023.69;4892841;29;20337;-81
2022/11/04 08:57:09;;;;;;;2.20;1.83;;;;;;;1.22;84.32;102035.53;4897644;29;20040;-80
2022/11/04 08:59:35;;;;;;;2.20;1.97;;;;;;;1.35;84.05;102031.41;4898505;29;20287;-80
2022/11/04 09:02:03;;;;;;;2.67;2.03;;;;;;;1.23;83.57;102024.13;4900020;29;20028;-82
2022/11/04 09:04:29;;;;;;;2.40;2.20;;;;;;;1.32;83.99;102026.31;4882771;29;20273;-78
2022/11/04 09:06:55;;;;;;;3.17;2.33;;;;;;;1.30;83.51;102014.19;4895407;29;20540;-79
2022/11/04 09:09:21;;;;;;;2.80;2.03;;;;;;;1.22;83.82;102001.44;4880531;29;20123;-79
2022/11/04 09:11:50;;;;;;;2.20;2.00;;;;;;;1.37;84.28;102019.06;4896621;29;20285;-82
2022/11/04 09:14:16;;;;;;;2.50;2.30;;;;;;;1.32;84.36;101986.94;4879789;29;20470;-76
2022/11/04 09:16:43;;;;;;;3.00;2.00;;;;;;;1.34;84.20;102011.34;4895303;29;20352;-76
2022/11/04 09:19:09;;;;;;;6.43;2.87;;;;;;;1.11;85.19;102015.03;4896507;29;20300;-79
2022/11/04 09:21:34;;;;;;;2.20;2.00;;;;;;;1.03;85.47;102016.31;4890278;29;20935;-76
2022/11/04 09:24:00;;;;;;;3.40;3.03;;;;;;;0.83;85.58;101980.50;4894847;29;20269;-75
2022/11/04 09:26:26;;;;;;;6.70;2.80;;;;;;;1.19;85.52;102014.69;4879023;29;20039;-76
2022/11/04 09:28:56;;;;;;;3.20;2.40;;;;;;;0.84;85.45;101974.34;4895670;29;20028;-77
2022/11/04 09:31:23;;;;;;;6.20;2.83;;;;;;;1.06;85.95;102016.19;4893993;29;20036;-79
2022/11/04 09:33:49;;;;;;;3.73;2.87;;;;;;;1.05;85.94;102009.22;4882010;29;20305;-81
2022/11/04 09:36:15;;;;;;;3.23;2.93;;;;;;;1.05;85.44;102024.97;4896283;29;20284;-75
2022/11/04 09:38:41;;;;;;;2.93;2.63;;;;;;;1.02;86.06;102023.34;4898247;29;20631;-77
2022/11/04 09:41:27;;;;;;;4.53;2.50;;;;;;;1.12;86.46;102021.13;4903945;29;20052;-80
2022/11/04 09:44:20;;;;;;;4.80;2.57;;;;;;;1.24;85.94;102025.81;4893444;29;20273;-75
2022/11/04 09:46:48;;;;;;;3.23;2.43;;;;;;;1.21;85.46;102026.81;4899377;29;20272;-75
2022/11/04 09:49:15;;;;;;;5.20;2.70;;;;;;;1.18;85.87;102020.88;4905369;29;20269;-76
2022/11/04 09:51:44;;;;;;;15.90;5.33;;;;;;;1.20;86.14;102024.28;4905473;29;20303;-75
2022/11/04 09:54:15;;;;;;;;;;;;;;;1.28;85.63;102037.03;4903107;29;20392;-74
2022/11/04 09:56:44;;;;;;;10.33;3.37;;;;;;;1.17;85.79;102012.16;4904265;29;20061;-76
2022/11/04 09:59:13;;;;;;;14.00;3.80;;;;;;;1.17;85.99;102025.28;4895806;29;20280;-78
2022/11/04 10:01:45;;;;;;;3.77;2.63;;;;;;;1.03;86.33;102014.53;4896162;29;20036;-76
2022/11/04 10:04:31;;;;;;;2.47;2.27;;;;;;;1.08;86.97;102024.81;4896619;29;20253;-76
2022/11/04 10:07:19;;;;;;;2.47;2.23;;;;;;;1.22;87.23;102025.03;4894008;29;20277;-75
2022/11/04 10:10:22;;;;;;;3.07;2.40;;;;;;;1.27;87.00;102020.44;4895043;29;20280;-73
2022/11/04 10:13:04;;;;;;;4.10;2.93;;;;;;;1.40;86.84;102023.31;4887398;29;20292;-73
2022/11/04 10:15:47;;;;;;;7.57;3.60;;;;;;;1.51;86.16;102024.53;4896146;29;20812;-74
2022/11/04 10:18:19;;;;;;;4.13;3.10;;;;;;;1.43;86.22;102024.00;4897484;29;20661;-75
2022/11/04 10:21:05;;;;;;;5.33;3.80;;;;;;;1.49;86.72;102036.88;4892722;29;20308;-74
2022/11/04 10:23:41;;;;;;;7.60;3.57;;;;;;;1.45;86.59;102032.69;4904319;29;20326;-74
2022/11/04 10:26:22;;;;;;;4.60;3.57;;;;;;;1.26;86.48;102039.72;4901047;29;20355;-75
2022/11/04 10:29:04;;;;;;;3.70;3.30;;;;;;;1.09;88.04;102037.03;4899154;29;20741;-74
2022/11/04 10:31:30;;;;;;;5.00;3.50;;;;;;;0.93;87.84;102019.38;4910124;29;20281;-76
2022/11/04 10:34:07;;;;;;;3.93;3.53;;;;;;;1.13;88.01;102030.69;4903960;29;20313;-77
2022/11/04 10:36:34;;;;;;;4.17;3.77;;;;;;;1.14;87.59;102042.91;4901784;29;20025;-78
2022/11/04 10:39:09;;;;;;;5.37;3.87;;;;;;;1.07;88.39;102051.97;4905486;29;20779;-79
2022/11/04 10:41:38;;;;;;;5.53;3.67;;;;;;;1.08;87.81;102046.66;4901491;29;20292;-79
2022/11/04 10:44:09;;;;;;;4.90;4.07;;;;;;;0.97;87.29;102048.09;4904180;29;20744;-75
2022/11/04 10:46:48;;;;;;;7.67;3.90;;;;;;;0.86;88.82;102057.28;4908583;29;20265;-77
2022/11/04 10:49:25;;;;;;;12.93;3.50;;;;;;;0.95;88.67;102055.19;4901190;29;20293;-76
2022/11/04 10:51:52;;;;;;;6.50;3.00;;;;;;;1.01;87.43;102055.75;4899430;29;20277;-79
2022/11/04 10:54:18;;;;;;;3.73;3.10;;;;;;;1.07;87.32;102059.84;4899820;29;20312;-78
2022/11/04 10:56:49;;;;;;;8.70;3.80;;;;;;;1.24;86.83;102057.31;4890788;29;20270;-77
2022/11/04 10:59:41;;;;;;;5.30;3.70;;;;;;;1.26;86.65;102047.59;4893791;29;20272;-78
2022/11/04 11:02:07;;;;;;;7.10;3.70;;;;;;;1.20;87.35;102037.41;4883350;29;20269;-80
2022/11/04 11:04:35;;;;;;;5.70;3.73;;;;;;;1.02;87.45;102001.50;4900461;29;20395;-76
2022/11/04 11:07:05;;;;;;;4.57;3.35;;;;;;;1.25;87.23;102043.28;4890676;29;20061;-79
2022/11/04 11:09:40;;;;;;;4.33;3.93;;;;;;;1.18;87.26;102047.97;4900112;29;20060;-78
2022/11/04 11:12:25;;;;;;;5.50;4.23;;;;;;;1.14;87.08;102042.91;4899460;29;20368;-81
2022/11/04 11:14:51;;;;;;;6.73;4.40;;;;;;;1.17;87.26;102048.03;4899397;29;20387;-78
2022/11/04 11:17:22;;;;;;;8.43;4.07;;;;;;;1.23;87.05;102050.38;4899311;29;20253;-78
2022/11/04 11:19:58;;;;;;;5.33;4.40;;;;;;;1.08;86.88;102037.94;4895848;29;20036;-78
2022/11/04 11:22:31;;;;;;;6.03;4.17;;;;;;;1.12;87.75;102044.75;4905120;29;20269;-83
2022/11/04 11:25:32;;;;;;;4.53;3.40;;;;;;;1.27;87.03;102045.81;4910608;29;20289;-78
2022/11/04 11:28:10;;;;;;;6.67;4.47;;;;;;;1.21;86.81;102041.72;4898884;29;20855;-77
2022/11/04 11:30:42;;;;;;;6.55;3.72;;;;;;;1.20;87.54;102040.00;4881456;29;20273;-77
2022/11/04 11:34:03;;;;;;;7.33;3.90;;;;;;;1.15;87.02;102039.34;4897670;29;20048;-85
2022/11/04 11:36:40;;;;;;;5.18;3.58;;;;;;;0.86;87.75;102015.31;4871692;29;20261;-82
2022/11/04 11:39:34;;;;;;;4.93;3.40;;;;;;;0.74;87.24;101999.28;4865303;29;20048;-82
2022/11/04 11:42:25;;;;;;;5.70;3.83;;;;;;;1.02;87.97;102025.97;4881762;29;20364;-77
2022/11/04 11:44:54;;;;;;;7.30;3.53;;;;;;;1.06;86.86;102022.28;4895792;29;20284;-77
2022/11/04 11:47:27;;;;;;;;;;;;;;;1.07;86.91;102033.63;4897332;29;20273;-74
2022/11/04 11:50:17;;;;;;;4.47;3.43;;;;;;;1.04;87.63;102029.38;4880840;29;19911;-76
2022/11/04 11:52:53;;;;;;;5.43;3.53;;;;;;;0.82;88.12;101987.53;4873378;29;20420;-77
2022/11/04 11:55:35;;;;;;;4.43;3.63;;;;;;;1.04;87.65;102021.50;4897400;29;20285;-72
2022/11/04 11:58:03;;;;;;;5.97;3.97;;;;;;;1.11;87.86;102032.53;4897561;29;20320;-76
2022/11/04 12:00:35;;;;;;;4.50;3.55;;;;;;;1.09;87.41;102031.78;4897983;29;20614;-75
2022/11/04 12:03:29;;;;;;;3.73;2.90;;;;;;;0.91;87.34;102029.09;4897007;29;20040;-77
2022/11/04 12:06:26;;;;;;;4.90;3.50;;;;;;;0.91;88.67;102029.09;4894950;29;20277;-73
2022/11/04 12:09:00;;;;;;;5.73;3.03;;;;;;;0.80;88.50;102019.97;4856478;29;20364;-76
2022/11/04 12:11:29;;;;;;;7.17;3.73;;;;;;;0.71;88.26;102023.03;4885934;29;20603;-75
2022/11/04 12:14:04;;;;;;;8.73;3.80;;;;;;;0.72;88.95;102028.19;4896499;29;20823;-77
2022/11/04 12:16:30;;;;;;;4.43;3.43;;;;;;;0.75;89.00;102028.06;4897060;29;20293;-78
2022/11/04 12:19:07;;;;;;;3.90;3.50;;;;;;;0.84;88.58;102026.78;4880631;29;20300;-78
2022/11/04 12:21:48;;;;;;;6.60;4.07;;;;;;;0.82;88.56;102026.00;4891537;29;20425;-80
2022/11/04 12:24:20;;;;;;;5.83;3.93;;;;;;;0.69;88.84;102012.59;4894450;29;20265;-75
2022/11/04 12:27:30;;;;;;;3.73;3.07;;;;;;;0.80;89.02;102031.31;4895486;29;20296;-77
2022/11/04 12:30:05;;;;;;;6.03;3.30;;;;;;;0.98;88.76;102036.66;4849970;29;20379;-76